AirNav   Air Wisconsin pilot careers
 
 1345 users online  

1S9 Chewelah Municipal Airport
Chewelah, Washington, USA

GOING TO CHEWELAH?


FAA INFORMATION EFFECTIVE 28 MARCH 2019

Location

FAA Identifier: 1S9
Lat/Long: 48-18-50.6890N / 117-44-36.2050W
48-18.844817N / 117-44.603417W
48.3140803 / -117.7433903
(estimated)
Elevation: 2084 ft. / 635 m (estimated)
Variation: 20E (1985)
Time zone: UTC -7 (UTC -8 during Standard Time)
Zip code: 99109

Airport Operations

Airport use: Open to the public
Activation date: 01/1979
Control tower: no
ARTCC: SEATTLE CENTER
FSS: SEATTLE FLIGHT SERVICE STATION
NOTAMs facility: SEA (NOTAM-D service available)
Attendance: UNATNDD
Wind indicator: lighted
Segmented circle: yes
Lights: ACTVT MIRL RY 17/35 - CTAF. PAPI RY 17 AND RY 35 OPER CONTINUOUSLY.
Beacon: white-green (lighted land airport)
Operates sunset to sunrise.

Airport Communications

CTAF: 122.9

Nearby radio navigation aids

NDB name  Hdg/Dist  Freq  Var  ID
DEER PARK313/24.436516EDPY -.. .--. -.--
IONE188/27.137921EION .. --- -.

Airport Services

Parking: tiedowns
Airframe service: MINOR
Powerplant service: MINOR
Bottled oxygen: NONE
Bulk oxygen: NONE

Runway Information

Runway 17/35

Dimensions: 3446 x 48 ft. / 1050 x 15 m
Surface: asphalt, in good condition
Runway edge lights: medium intensity
RUNWAY 17  RUNWAY 35
Latitude: 48-19.124150N48-18.565467N
Longitude: 117-44.531783W117-44.675067W
Traffic pattern: rightleft
Displaced threshold: 230 ft.101 ft.
Markings: basic, in fair conditionbasic, in fair condition
Visual slope indicator: 2-light PAPI on right (4.00 degrees glide path)2-light PAPI on left (3.00 degrees glide path)
Obstructions: 11 ft. tree, 275 ft. from runway, 63 ft. right of centerline, 6:1 slope to clear
3' DITCH +1' TO +3' ROCKS & RD 56' FM THR; 77' L, +14' TREES 200' FM THR.
none

Airport Ownership and Management from official FAA records

Ownership: Publicly-owned
Owner: CITY OF CHEWELAH
PO BOX 258
CHEWELAH, WA 99109
Phone 509-935-8311
Manager: DAVE GILBERT
PO BOX 258
CHEWELAH, WA 99109
Phone 509-936-2239

Airport Operational Statistics

Aircraft based on the field: 17
Single engine airplanes: 16
Multi engine airplanes: 1
    
Aircraft operations: avg 96/week *
60% local general aviation
40% transient general aviation
* for 12-month period ending 31 December 2015

Additional Remarks

ALL PATTERNS TO THE WEST.
DEER & WILDLIFEON & INVOF ARPT.

Instrument Procedures

There are no published instrument procedures at 1S9.

Some nearby airports with instrument procedures:

KDEW - Deer Park Airport (24 nm SE)
KSFF - Felts Field Airport (41 nm SE)
KSKA - Fairchild Air Force Base (42 nm S)
KGEG - Spokane International Airport (43 nm S)
KSZT - Sandpoint Airport (47 nm E)
 
Loc | Ops | Rwys | IFR | FBO | Links
Com | Nav | Svcs | Stats | Notes
Area around 1S9 (Chewelah Municipal Airport)
 
Road maps at: MapQuest Bing Google
 
Aerial photo
WARNING: Photo may not be current or correct
Aerial photo of 1S9 (Chewelah Municipal Airport)
Photo by P.J. Reinders
Taken in September 2008

Do you have a better or more recent aerial photo of Chewelah Municipal Airport that you would like to share? If so, please send us your photo.

 
Sectional chart

 
Airport distance calculator
Flying to Chewelah Municipal Airport? Find the distance to fly.

From to 1S9

Sunrise and sunset
Times for 23-Apr-2019
 Local
(UTC-7)
 Zulu
(UTC)
Morning civil twilight05:1312:13
Sunrise05:4712:47
Sunset19:5202:52
Evening civil twilight20:2603:26

Current date and time
Zulu (UTC)  23-Apr-2019 21:14:00
Local (UTC-7)  23-Apr-2019 14:14:00
 
METAR
KDEW 
24nm SE 
232053Z AUTO 23019G25KT 10SM FEW050 19/05 A3001 RMK AO2 SLP157 T01940050 55011
KSFF 
42nm SE 
232053Z 24013G24KT 10SM SCT049 BKN060 19/07 A3001 RMK AO2 SLP157 T01890067 58011
KSKA 
42nm S 
232058Z AUTO 23020G24KT 10SM BKN046 18/08 A3002 RMK AO2 PK WND 23027/1959 SLP164 T01810078 57012 $
KGEG 
43nm S 
232053Z 23019G26KT 10SM BKN045 BKN200 19/06 A3002 RMK AO2 PK WND 23027/2034 SLP160 T01890061 58010
KSZT 
47nm E 
232055Z AUTO 23006G16KT 10SM SCT055 SCT065 18/05 A2999 RMK AO2
TAF
KSFF 
42nm SE 
231721Z 2318/2418 22011KT P6SM SCT030 SCT110 BKN200 FM231900 23015G21KT P6SM SCT050 BKN200 FM240200 24007KT P6SM SCT200 FM240900 24004KT P6SM SKC
KSKA 
42nm S 
231900Z 2319/2501 23015G25KT 9999 SCT025 QNH2999INS BECMG 2402/2403 23010G15KT 9999 SCT130 QNH3000INS BECMG 2411/2412 22006KT 9999 SKC QNH3009INS TX17/2322Z TN02/2412Z
KGEG 
43nm S 
231721Z 2318/2418 23014KT P6SM SCT030 SCT110 BKN200 FM231900 23018G26KT P6SM SCT050 BKN200 FM240300 23011KT P6SM SCT200 FM240900 21008KT P6SM SKC
KCOE 
50nm SE 
231722Z 2318/2418 22011KT P6SM BKN030 BKN110 FM231900 23015G21KT P6SM SCT050 BKN200 FM240200 22009KT P6SM SCT200 FM240600 20005KT P6SM FEW015
NOTAMs
Click for the latest NOTAMs
NOTAMs are issued by the DoD/FAA and will open in a separate window not controlled by AirNav.

 

 
 

Would you like to see your business listed on this page?

 If your business provides an interesting product or service to pilots, flight crews, aircraft, or users of the Chewelah Municipal Airport, you should consider listing it here.  To start the listing process, click on the button below
 
Add a business
 

Other Pages about Chewelah Municipal Airport

Update a link
 
Copyright © AirNav, LLC. All rights reserved. Privacy Policy  Contact